Time;durP1;ratioP1;P1;durP2;ratioP2;P2;SDS_P1;SDS_P2;PMS_P1;PMS_P2;Temp;Humidity;BMP_temperature;BMP_pressure;BME280_temperature;BME280_humidity;BME280_pressure;Samples;Min_cycle;Max_cycle;Signal;HPM_P1;HPM_P2
2022/12/14 00:01:12;;;;;;;47.38;29.70;;;-3.70;99.90;;;;;;7373348;19;20025;-51
2022/12/14 00:03:39;;;;;;;44.50;28.73;;;-3.80;99.90;;;;;;7367166;19;20030;-49
2022/12/14 00:06:14;;;;;;;45.33;29.55;;;-3.80;99.90;;;;;;7367910;19;20022;-49
2022/12/14 00:08:40;;;;;;;47.45;27.77;;;-3.80;99.90;;;;;;7369858;19;20417;-49
2022/12/14 00:11:09;;;;;;;45.92;27.92;;;-3.80;99.90;;;;;;7369334;19;20030;-53
2022/12/14 00:13:37;;;;;;;47.78;28.05;;;-3.80;99.90;;;;;;7366799;19;20517;-53
2022/12/14 00:16:09;;;;;;;43.83;27.02;;;-3.90;99.90;;;;;;7359708;19;20362;-53
2022/12/14 00:18:39;;;;;;;40.17;25.75;;;-3.90;99.90;;;;;;7359338;19;20478;-53
2022/12/14 00:21:11;;;;;;;46.53;27.38;;;-3.90;99.90;;;;;;7363044;19;20025;-51
2022/12/14 00:23:39;;;;;;;40.80;26.25;;;-3.90;99.90;;;;;;7352798;19;20018;-51
2022/12/14 00:26:21;;;;;;;41.95;25.58;;;-4.00;99.90;;;;;;7363162;19;20014;-51
2022/12/14 00:28:51;;;;;;;42.17;26.05;;;-4.00;99.90;;;;;;7366427;19;20042;-52
2022/12/14 00:31:17;;;;;;;40.85;26.27;;;-4.00;99.90;;;;;;7369702;19;20045;-51
2022/12/14 00:33:44;;;;;;;44.33;27.40;;;-4.00;99.90;;;;;;7370264;19;20029;-50
2022/12/14 00:36:11;;;;;;;42.92;27.60;;;-4.00;99.90;;;;;;7366231;19;20022;-55
2022/12/14 00:38:39;;;;;;;41.70;26.95;;;-4.00;99.90;;;;;;7373167;19;20505;-52
2022/12/14 00:41:05;;;;;;;44.28;27.13;;;-4.00;99.90;;;;;;7370883;19;20045;-48
2022/12/14 00:43:32;;;;;;;43.47;25.92;;;-4.00;99.90;;;;;;7368027;19;20124;-52
2022/12/14 00:45:59;;;;;;;45.55;28.92;;;-4.10;99.90;;;;;;7375302;19;20018;-54
2022/12/14 00:48:26;;;;;;;42.35;26.10;;;-4.10;99.90;;;;;;7378086;19;20025;-54
2022/12/14 00:50:54;;;;;;;41.85;25.30;;;-4.10;99.90;;;;;;7376514;19;20085;-52
2022/12/14 00:53:21;;;;;;;41.00;24.35;;;-4.10;99.90;;;;;;7379453;19;20031;-52
2022/12/14 00:55:49;;;;;;;41.60;25.02;;;-4.20;99.90;;;;;;7376342;19;20025;-53
2022/12/14 00:58:18;;;;;;;45.60;25.02;;;-4.20;99.90;;;;;;7377491;19;20368;-55
2022/12/14 01:00:47;;;;;;;45.83;26.90;;;-4.30;99.90;;;;;;7378627;19;20098;-53
2022/12/14 01:03:13;;;;;;;44.65;27.30;;;-4.30;99.90;;;;;;7377206;19;20411;-53
2022/12/14 01:05:40;;;;;;;42.67;25.55;;;-4.30;99.90;;;;;;7369441;19;20485;-54
2022/12/14 01:08:07;;;;;;;45.28;26.90;;;-4.30;99.90;;;;;;7368701;19;20038;-54
2022/12/14 01:10:38;;;;;;;41.90;26.77;;;-4.30;99.90;;;;;;7364586;19;20025;-55
2022/12/14 01:13:05;;;;;;;40.67;25.00;;;-4.40;99.90;;;;;;7366562;19;20093;-55
2022/12/14 01:15:34;;;;;;;44.10;25.73;;;-4.40;99.90;;;;;;7366974;19;20018;-55
2022/12/14 01:18:01;;;;;;;40.80;25.95;;;-4.40;99.90;;;;;;7364399;19;20026;-54
2022/12/14 01:20:27;;;;;;;45.42;24.88;;;-4.40;99.90;;;;;;7366549;19;20442;-54
2022/12/14 01:22:57;;;;;;;46.08;26.70;;;-4.50;99.90;;;;;;7366782;19;20052;-55
2022/12/14 01:25:24;;;;;;;42.63;25.80;;;-4.50;99.90;;;;;;7369246;19;20421;-56
2022/12/14 01:27:51;;;;;;;44.97;28.23;;;-4.50;99.90;;;;;;7362190;19;20028;-55
2022/12/14 01:30:18;;;;;;;41.60;25.50;;;-4.50;99.90;;;;;;7373635;19;20054;-54
2022/12/14 01:32:45;;;;;;;45.40;27.48;;;-4.50;99.90;;;;;;7374404;19;20018;-55
2022/12/14 01:35:11;;;;;;;40.08;27.08;;;-4.50;99.90;;;;;;7378263;19;20614;-55
2022/12/14 01:37:38;;;;;;;42.67;26.13;;;-4.50;99.90;;;;;;7373338;19;20578;-54
2022/12/14 01:40:04;;;;;;;41.85;25.42;;;-4.60;99.90;;;;;;7376152;19;20014;-54
2022/12/14 01:42:39;;;;;;;38.92;25.17;;;-4.60;99.90;;;;;;7377460;19;20482;-55
2022/12/14 01:45:15;;;;;;;44.03;26.42;;;-4.50;99.90;;;;;;7376354;19;20014;-55
2022/12/14 01:47:47;;;;;;;45.42;25.38;;;-4.60;99.90;;;;;;7377537;19;20027;-56
2022/12/14 01:50:34;;;;;;;40.20;25.58;;;-4.50;99.90;;;;;;7374638;19;20120;-56
2022/12/14 01:53:19;;;;;;;40.88;25.05;;;-4.60;99.90;;;;;;7376271;19;20021;-52
2022/12/14 01:55:46;;;;;;;;;;;-4.60;99.90;;;;;;7372515;19;20022;-50
2022/12/14 01:58:19;;;;;;;40.30;24.58;;;-4.60;99.90;;;;;;7374396;19;19976;-52
2022/12/14 02:00:59;;;;;;;42.55;23.75;;;-4.60;99.90;;;;;;7373536;19;20018;-53
2022/12/14 02:03:35;;;;;;;43.10;25.27;;;-4.70;99.90;;;;;;7368076;19;20019;-52
2022/12/14 02:06:16;;;;;;;39.97;25.42;;;-4.70;99.90;;;;;;7367029;19;20021;-51
2022/12/14 02:08:49;;;;;;;43.03;25.55;;;-4.70;99.90;;;;;;7360778;19;20019;-51
2022/12/14 02:11:26;;;;;;;45.65;26.40;;;-4.70;99.90;;;;;;7365395;19;20064;-52
2022/12/14 02:13:57;;;;;;;47.42;26.88;;;-4.70;99.90;;;;;;7360776;19;20018;-52
2022/12/14 02:16:23;;;;;;;40.42;24.55;;;-4.80;99.90;;;;;;7363436;19;20026;-53
2022/12/14 02:18:49;;;;;;;39.05;23.35;;;-4.80;99.90;;;;;;7370019;19;20014;-53
2022/12/14 02:21:40;;;;;;;39.97;24.23;;;-4.80;99.90;;;;;;7373457;19;20097;-56
2022/12/14 02:24:46;;;;;;;41.70;25.15;;;-4.90;99.90;;;;;;7376694;19;20395;-56
2022/12/14 02:27:24;;;;;;;38.50;24.70;;;-4.90;99.90;;;;;;7372778;19;20367;-56
2022/12/14 02:30:01;;;;;;;40.60;24.27;;;-4.90;99.90;;;;;;7368726;19;20018;-56
2022/12/14 02:32:52;;;;;;;36.63;22.38;;;-5.00;99.90;;;;;;7373580;19;20486;-55
2022/12/14 02:35:27;;;;;;;37.20;23.67;;;-5.00;99.90;;;;;;7376674;19;20061;-56
2022/12/14 02:38:27;;;;;;;34.00;21.92;;;-5.10;99.90;;;;;;7374037;19;21415;-48
2022/12/14 02:41:37;;;;;;;41.22;23.65;;;-5.10;99.90;;;;;;7375039;19;20018;-55
2022/12/14 02:44:33;;;;;;;40.60;23.52;;;-5.10;99.90;;;;;;7372035;19;20663;-53
2022/12/14 02:47:29;;;;;;;37.03;22.00;;;-5.10;99.90;;;;;;7366280;19;20035;-56
2022/12/14 02:50:13;;;;;;;42.45;24.80;;;-5.20;99.90;;;;;;7365472;19;20660;-55
2022/12/14 02:52:42;;;;;;;38.13;23.75;;;-5.20;99.90;;;;;;7369916;19;20046;-55
2022/12/14 02:55:29;;;;;;;41.67;23.08;;;-5.20;99.90;;;;;;7375468;19;20022;-56
2022/12/14 02:58:15;;;;;;;38.30;21.92;;;-5.30;99.90;;;;;;7375837;19;20566;-55
2022/12/14 03:00:42;;;;;;;43.25;24.13;;;-5.30;99.90;;;;;;7378688;19;20411;-56
2022/12/14 03:03:08;;;;;;;38.70;24.45;;;-5.30;99.90;;;;;;7370042;19;20508;-55
2022/12/14 03:05:35;;;;;;;36.97;24.42;;;-5.40;99.90;;;;;;7372831;19;20014;-56
2022/12/14 03:08:10;;;;;;;41.13;24.80;;;-5.30;99.90;;;;;;7371895;19;20011;-56
2022/12/14 03:11:00;;;;;;;39.67;24.83;;;-5.40;99.90;;;;;;7362814;19;20507;-55
2022/12/14 03:13:46;;;;;;;38.72;23.80;;;-5.40;99.90;;;;;;7364653;19;20110;-52
2022/12/14 03:16:31;;;;;;;39.90;23.05;;;-5.40;99.90;;;;;;7353778;19;20102;-56
2022/12/14 03:19:02;;;;;;;41.53;25.08;;;-5.40;99.90;;;;;;7363669;19;20018;-52
2022/12/14 03:21:35;;;;;;;41.20;24.10;;;-5.40;99.90;;;;;;7363605;19;20025;-49
2022/12/14 03:24:06;;;;;;;40.83;23.45;;;-5.40;99.90;;;;;;7369105;19;20026;-47
2022/12/14 03:26:39;;;;;;;41.67;23.87;;;-5.40;99.90;;;;;;7369304;19;20457;-49
2022/12/14 03:29:17;;;;;;;37.05;22.58;;;-5.40;99.90;;;;;;7372589;19;20036;-48
2022/12/14 03:31:51;;;;;;;40.85;23.30;;;-5.40;99.90;;;;;;7370061;19;20498;-50
2022/12/14 03:34:23;;;;;;;36.05;24.80;;;-5.40;99.90;;;;;;7372173;19;20018;-51
2022/12/14 03:37:19;;;;;;;39.72;22.00;;;-5.40;99.90;;;;;;7369543;19;20019;-48
2022/12/14 03:39:46;;;;;;;41.63;24.17;;;-5.40;99.90;;;;;;7363813;19;20035;-51
2022/12/14 03:42:15;;;;;;;37.10;23.15;;;-5.40;99.90;;;;;;7374003;19;20359;-51
2022/12/14 03:45:06;;;;;;;41.22;24.38;;;-5.40;99.90;;;;;;7362054;19;20475;-47
2022/12/14 03:48:12;;;;;;;39.45;23.33;;;-5.50;99.90;;;;;;7372796;19;20106;-50
2022/12/14 03:50:49;;;;;;;42.85;24.00;;;-5.50;99.90;;;;;;7363931;19;20015;-52
2022/12/14 03:53:40;;;;;;;33.90;21.67;;;-5.60;99.90;;;;;;7374259;19;20442;-49
2022/12/14 03:56:12;;;;;;;38.85;20.33;;;-5.60;99.90;;;;;;7374566;19;20025;-49
2022/12/14 03:58:41;;;;;;;31.45;20.90;;;-5.60;99.90;;;;;;7374095;19;20022;-51
2022/12/14 04:01:33;;;;;;;32.63;20.17;;;-5.60;99.90;;;;;;7367940;19;20018;-51
2022/12/14 04:04:13;;;;;;;41.30;22.60;;;-5.70;99.90;;;;;;7365300;19;20034;-48
2022/12/14 04:06:52;;;;;;;36.65;22.02;;;-5.70;99.90;;;;;;7362844;19;20363;-47
2022/12/14 04:09:48;;;;;;;36.72;20.63;;;-5.70;99.90;;;;;;7368676;19;20387;-50
2022/12/14 04:21:13;;;;;;;33.05;19.40;;;-5.70;99.90;;;;;;7368596;19;20022;-50
2022/12/14 04:26:39;;;;;;;35.33;20.92;;;-5.80;99.90;;;;;;7370350;19;20018;-53
2022/12/14 04:32:22;;;;;;;32.78;20.70;;;-5.80;99.90;;;;;;7371445;19;20501;-49
2022/12/14 04:34:53;;;;;;;35.60;20.65;;;-5.80;99.90;;;;;;7373044;19;20026;-51
2022/12/14 04:37:23;;;;;;;39.30;21.80;;;-5.80;99.90;;;;;;7367790;19;20018;-51
2022/12/14 04:39:56;;;;;;;33.78;19.58;;;-5.80;99.90;;;;;;7373681;19;20018;-50
2022/12/14 04:42:28;;;;;;;33.70;21.65;;;-5.80;99.90;;;;;;7375253;19;20800;-55
2022/12/14 04:45:03;;;;;;;38.38;20.80;;;-5.80;99.90;;;;;;7375706;19;20035;-50
2022/12/14 04:47:35;;;;;;;42.78;21.92;;;-5.70;99.90;;;;;;7368740;19;20023;-51
2022/12/14 04:50:13;;;;;;;40.35;22.67;;;-5.80;99.90;;;;;;7360497;19;20769;-52
2022/12/14 04:52:46;;;;;;;32.80;19.92;;;-5.90;99.90;;;;;;7361498;19;20006;-51
2022/12/14 04:55:24;;;;;;;39.63;21.70;;;-5.90;99.90;;;;;;7373559;19;20018;-56
2022/12/14 04:58:12;;;;;;;34.22;20.67;;;-5.90;99.90;;;;;;7375701;19;20022;-54
2022/12/14 05:00:56;;;;;;;41.92;22.73;;;-5.90;99.90;;;;;;7378712;19;20025;-54
2022/12/14 05:03:31;;;;;;;40.92;21.80;;;-5.90;99.90;;;;;;7376980;19;20021;-55
2022/12/14 05:05:58;;;;;;;39.25;22.67;;;-5.90;99.90;;;;;;7376220;19;20050;-55
2022/12/14 05:08:45;;;;;;;43.72;25.15;;;-6.00;99.90;;;;;;7376502;19;20043;-55
2022/12/14 05:11:32;;;;;;;38.72;23.92;;;-5.90;99.90;;;;;;7377003;19;20018;-55
2022/12/14 05:14:01;;;;;;;40.45;23.40;;;-6.00;99.90;;;;;;7372109;19;20061;-51
2022/12/14 05:16:30;;;;;;;40.53;23.80;;;-6.00;99.90;;;;;;7373078;19;20026;-56
2022/12/14 05:18:56;;;;;;;41.58;23.70;;;-6.00;99.90;;;;;;7376063;19;20059;-55
2022/12/14 05:24:07;;;;;;;40.63;24.33;;;-6.00;99.90;;;;;;7374607;19;20026;-47
2022/12/14 05:26:35;;;;;;;39.05;23.85;;;-6.00;99.90;;;;;;7372381;19;20728;-53
2022/12/14 05:29:01;;;;;;;41.20;22.65;;;-6.00;99.90;;;;;;7371371;19;20022;-53
2022/12/14 05:31:27;;;;;;;35.65;21.33;;;-6.00;99.90;;;;;;7373757;19;20026;-56
2022/12/14 05:33:54;;;;;;;37.97;22.27;;;-6.10;99.90;;;;;;7374280;19;20473;-55
2022/12/14 05:36:20;;;;;;;39.72;22.42;;;-6.00;99.90;;;;;;7373481;19;20030;-55
2022/12/14 05:38:47;;;;;;;40.28;23.42;;;-6.10;99.90;;;;;;7373463;19;20053;-54
2022/12/14 05:41:14;;;;;;;40.72;23.48;;;-6.10;99.90;;;;;;7374829;19;20018;-55
2022/12/14 05:43:40;;;;;;;42.60;22.00;;;-6.10;99.90;;;;;;7371515;19;20547;-55
2022/12/14 05:46:10;;;;;;;39.95;23.75;;;-6.10;99.90;;;;;;7375936;19;20035;-55
2022/12/14 05:48:37;;;;;;;42.53;23.00;;;-6.10;99.90;;;;;;7374818;19;20805;-54
2022/12/14 05:51:08;;;;;;;41.03;24.48;;;-6.10;99.90;;;;;;7376815;19;20047;-54
2022/12/14 05:53:35;;;;;;;;;;;-6.10;99.90;;;;;;7372972;19;20523;-54
2022/12/14 05:56:04;;;;;;;44.78;23.38;;;-6.10;99.90;;;;;;7372986;19;19922;-54
2022/12/14 05:58:32;;;;;;;43.10;23.27;;;-6.10;99.90;;;;;;7373456;19;20078;-53
2022/12/14 06:01:08;;;;;;;43.80;23.77;;;-6.10;99.90;;;;;;7379757;19;20038;-57
2022/12/14 06:03:34;;;;;;;42.33;25.67;;;-6.10;99.90;;;;;;7382121;19;20089;-53
2022/12/14 06:06:02;;;;;;;45.38;24.05;;;-6.10;99.90;;;;;;7380466;19;20039;-55
2022/12/14 06:08:37;;;;;;;40.75;24.08;;;-6.10;99.90;;;;;;7379360;19;20019;-54
2022/12/14 06:11:07;;;;;;;46.33;24.10;;;-6.10;99.90;;;;;;7380947;19;20014;-53
2022/12/14 06:13:35;;;;;;;48.67;24.58;;;-6.10;99.90;;;;;;7382280;19;20021;-53
2022/12/14 06:16:24;;;;;;;44.03;22.55;;;-6.10;99.90;;;;;;7380741;19;20508;-53
2022/12/14 06:18:55;;;;;;;44.03;25.00;;;-6.10;99.90;;;;;;7379909;19;20482;-54
2022/12/14 06:21:25;;;;;;;38.95;23.30;;;-6.10;99.90;;;;;;7383112;19;20377;-53
2022/12/14 06:23:53;;;;;;;43.08;23.30;;;-6.10;99.90;;;;;;7376530;19;20033;-54
2022/12/14 06:26:20;;;;;;;39.95;23.60;;;-6.10;99.90;;;;;;7376773;19;20553;-56
2022/12/14 06:28:46;;;;;;;44.33;23.80;;;-6.10;99.90;;;;;;7372816;19;20023;-55
2022/12/14 06:31:18;;;;;;;40.97;23.00;;;-6.10;99.90;;;;;;7377105;19;20018;-53
2022/12/14 06:33:45;;;;;;;43.08;24.08;;;-6.20;99.90;;;;;;7377790;19;20436;-55
2022/12/14 06:36:26;;;;;;;45.10;24.73;;;-6.10;99.90;;;;;;7379544;19;20031;-53
2022/12/14 06:38:54;;;;;;;43.00;24.63;;;-6.20;99.90;;;;;;7379291;19;20058;-53
2022/12/14 06:41:22;;;;;;;46.28;23.02;;;-6.20;99.90;;;;;;7382220;19;20015;-54
2022/12/14 06:43:49;;;;;;;45.15;23.38;;;-6.20;99.90;;;;;;7382218;19;20702;-52
2022/12/14 06:46:18;;;;;;;39.97;24.23;;;-6.20;99.90;;;;;;7382274;19;20014;-54
2022/12/14 06:48:52;;;;;;;43.25;23.42;;;-6.20;99.90;;;;;;7380064;19;20022;-54
2022/12/14 06:51:21;;;;;;;42.22;22.83;;;-6.20;99.90;;;;;;7384128;19;20451;-52
2022/12/14 06:53:53;;;;;;;43.42;23.73;;;-6.20;99.90;;;;;;7381252;19;20102;-55
2022/12/14 06:56:21;;;;;;;41.83;25.05;;;-6.20;99.90;;;;;;7384103;19;20739;-52
2022/12/14 06:58:48;;;;;;;40.83;24.23;;;-6.20;99.90;;;;;;7381038;19;20498;-55
2022/12/14 07:01:16;;;;;;;45.63;25.63;;;-6.20;99.90;;;;;;7382030;19;20014;-54
2022/12/14 07:03:47;;;;;;;40.13;22.83;;;-6.30;99.90;;;;;;7383541;19;20014;-54
2022/12/14 07:06:14;;;;;;;45.97;23.45;;;-6.30;99.90;;;;;;7376105;19;20822;-54
2022/12/14 07:08:40;;;;;;;44.92;26.05;;;-6.30;99.90;;;;;;7370256;19;20030;-54
2022/12/14 07:11:10;;;;;;;44.15;23.73;;;-6.30;99.90;;;;;;7373253;19;20032;-53
2022/12/14 07:13:37;;;;;;;42.15;23.02;;;-6.30;99.90;;;;;;7376174;19;20014;-53
2022/12/14 07:16:06;;;;;;;44.58;24.17;;;-6.30;99.90;;;;;;7378899;19;20033;-53
2022/12/14 07:18:38;;;;;;;44.33;24.08;;;-6.20;99.90;;;;;;7378103;19;20018;-52
2022/12/14 07:21:08;;;;;;;41.75;22.60;;;-6.30;99.90;;;;;;7379938;19;20387;-55
2022/12/14 07:23:36;;;;;;;40.38;24.50;;;-6.30;99.90;;;;;;7377265;19;20014;-50
2022/12/14 07:26:12;;;;;;;36.53;20.13;;;-6.30;99.90;;;;;;7375740;19;20070;-51
2022/12/14 07:28:39;;;;;;;37.10;19.92;;;-6.40;99.90;;;;;;7378358;19;20022;-54
2022/12/14 07:31:10;;;;;;;42.78;21.02;;;-6.40;99.90;;;;;;7379004;19;20014;-52
2022/12/14 07:33:37;;;;;;;36.20;20.67;;;-6.40;99.90;;;;;;7376335;19;20014;-53
2022/12/14 07:36:06;;;;;;;41.38;22.75;;;-6.40;99.90;;;;;;7377198;19;20035;-56
2022/12/14 07:38:35;;;;;;;37.67;22.48;;;-6.40;99.90;;;;;;7369786;19;20478;-57
2022/12/14 07:41:08;;;;;;;42.15;22.30;;;-6.40;99.90;;;;;;7365429;19;20025;-46
2022/12/14 07:43:35;;;;;;;39.88;23.25;;;-6.40;99.90;;;;;;7368026;19;20631;-49
2022/12/14 07:46:04;;;;;;;41.70;23.52;;;-6.40;99.90;;;;;;7373807;19;20043;-49
2022/12/14 07:48:31;;;;;;;37.78;21.40;;;-6.40;99.90;;;;;;7373474;19;20022;-48
2022/12/14 07:51:09;;;;;;;40.30;22.42;;;-6.40;99.90;;;;;;7371691;19;20018;-45
2022/12/14 07:53:57;;;;;;;42.30;22.17;;;-6.40;99.90;;;;;;7370570;19;20446;-51
2022/12/14 07:56:28;;;;;;;39.42;22.42;;;-6.40;99.90;;;;;;7375248;19;20475;-46
2022/12/14 07:58:55;;;;;;;38.65;21.70;;;-6.40;99.90;;;;;;7371339;19;20018;-45
2022/12/14 08:01:26;;;;;;;36.78;21.25;;;-6.40;99.90;;;;;;7373921;19;20019;-45
2022/12/14 08:03:59;;;;;;;43.35;23.17;;;-6.40;99.90;;;;;;7373288;19;20694;-44
2022/12/14 08:06:28;;;;;;;43.70;21.52;;;-6.40;99.90;;;;;;7374567;19;20090;-45
2022/12/14 08:09:06;;;;;;;38.30;21.63;;;-6.40;99.90;;;;;;7369765;19;20051;-45
2022/12/14 08:11:33;;;;;;;38.42;20.38;;;-6.50;99.90;;;;;;7367299;19;20045;-45
2022/12/14 08:14:03;;;;;;;46.00;21.50;;;-6.40;99.90;;;;;;7365106;19;20374;-46
2022/12/14 08:16:30;;;;;;;39.25;22.08;;;-6.40;99.90;;;;;;7373285;19;20026;-48
2022/12/14 08:18:58;;;;;;;40.80;22.17;;;-6.40;99.90;;;;;;7370415;19;20035;-47
2022/12/14 08:21:25;;;;;;;38.00;20.33;;;-6.40;99.90;;;;;;7371570;19;20047;-48
2022/12/14 08:23:53;;;;;;;35.22;20.88;;;-6.30;99.90;;;;;;7369055;19;20022;-46
2022/12/14 08:26:20;;;;;;;36.33;20.55;;;-6.20;99.90;;;;;;7373962;19;20014;-46
2022/12/14 08:28:47;;;;;;;33.67;20.80;;;-6.10;99.90;;;;;;7366451;19;20543;-45
2022/12/14 08:31:16;;;;;;;39.95;22.48;;;-6.00;99.90;;;;;;7369563;19;20604;-47
2022/12/14 08:33:47;;;;;;;38.85;22.85;;;-5.60;99.90;;;;;;7371278;19;20100;-47
2022/12/14 08:36:23;;;;;;;38.55;21.08;;;-4.90;99.90;;;;;;7368699;19;20045;-46
2022/12/14 08:39:00;;;;;;;39.05;22.65;;;-4.20;99.90;;;;;;7370121;19;20018;-46
2022/12/14 08:41:28;;;;;;;37.90;19.67;;;-3.90;99.90;;;;;;7368306;19;20094;-50
2022/12/14 08:43:56;;;;;;;40.08;20.52;;;-3.80;99.90;;;;;;7367190;19;20035;-48
2022/12/14 08:46:24;;;;;;;33.85;19.00;;;-3.80;99.90;;;;;;7361584;19;20057;-46
2022/12/14 08:48:51;;;;;;;32.78;18.52;;;-3.30;99.90;;;;;;7364675;19;20023;-47
2022/12/14 08:51:19;;;;;;;32.97;18.38;;;-3.00;99.90;;;;;;7369247;19;20035;-50
2022/12/14 08:53:49;;;;;;;31.10;18.27;;;-3.00;99.90;;;;;;7377953;19;20569;-49
2022/12/14 08:56:18;;;;;;;30.48;19.15;;;-2.90;99.90;;;;;;7375362;19;20026;-48
2022/12/14 08:58:46;;;;;;;30.58;18.58;;;-2.90;99.90;;;;;;7372628;19;20507;-47
2022/12/14 09:01:16;;;;;;;31.02;19.08;;;-3.10;99.90;;;;;;7372951;19;20023;-46
2022/12/14 09:03:44;;;;;;;33.30;17.75;;;-3.00;99.90;;;;;;7375561;19;20374;-49
2022/12/14 09:06:26;;;;;;;32.13;18.05;;;-3.00;99.90;;;;;;7376522;19;20604;-49
2022/12/14 09:08:54;;;;;;;31.00;18.38;;;-3.20;99.90;;;;;;7381929;19;20350;-50
2022/12/14 09:11:21;;;;;;;30.58;17.08;;;-3.20;99.90;;;;;;7380898;19;20382;-48
2022/12/14 09:13:48;;;;;;;26.10;16.95;;;-3.20;99.90;;;;;;7373257;19;20493;-49
2022/12/14 09:16:19;;;;;;;34.38;19.00;;;-3.30;99.90;;;;;;7375023;19;20038;-50
2022/12/14 09:18:47;;;;;;;26.77;17.25;;;-3.40;99.90;;;;;;7375081;19;20545;-51
2022/12/14 09:21:18;;;;;;;28.27;16.02;;;-3.20;99.90;;;;;;7379010;19;20470;-50
2022/12/14 09:23:44;;;;;;;31.90;17.35;;;-3.20;99.90;;;;;;7378782;19;20022;-51
2022/12/14 09:26:15;;;;;;;30.33;18.42;;;-3.20;99.90;;;;;;7381879;19;20030;-49
2022/12/14 09:28:44;;;;;;;32.35;19.05;;;-3.00;99.90;;;;;;7380924;19;21370;-50
2022/12/14 09:31:13;;;;;;;31.23;17.23;;;-3.00;99.90;;;;;;7380761;19;20030;-53
2022/12/14 09:33:39;;;;;;;30.50;17.13;;;-2.90;99.90;;;;;;7379196;19;20022;-54
2022/12/14 09:36:09;;;;;;;25.10;15.40;;;-2.90;99.90;;;;;;7380493;19;20886;-54
2022/12/14 09:38:38;;;;;;;26.95;18.42;;;-2.70;99.90;;;;;;7381765;19;20018;-53
2022/12/14 09:41:07;;;;;;;31.15;17.20;;;-2.70;99.90;;;;;;7379612;19;20018;-54
2022/12/14 09:43:42;;;;;;;32.63;18.48;;;-2.70;99.90;;;;;;7379518;19;20019;-51
2022/12/14 09:46:48;;;;;;;31.05;17.38;;;-2.80;99.90;;;;;;7373823;19;20034;-51
2022/12/14 09:49:33;;;;;;;28.25;17.38;;;-2.90;99.90;;;;;;7368896;19;20026;-49
2022/12/14 09:52:02;;;;;;;27.75;16.42;;;-3.00;99.90;;;;;;7369765;19;20025;-47
2022/12/14 09:54:32;;;;;;;26.17;16.58;;;-3.00;99.90;;;;;;7373970;19;20018;-52
2022/12/14 09:57:04;;;;;;;29.08;17.92;;;-2.70;99.90;;;;;;7375519;19;20018;-54
2022/12/14 09:59:33;;;;;;;30.85;18.60;;;-2.30;99.90;;;;;;7382936;19;20046;-53
2022/12/14 10:02:25;;;;;;;25.35;16.75;;;-2.00;99.90;;;;;;7378692;19;20015;-50
2022/12/14 10:05:00;;;;;;;;;;;-1.90;99.90;;;;;;7375930;19;20465;-48
2022/12/14 10:07:46;;;;;;;27.65;17.17;;;-1.90;99.90;;;;;;7379365;19;20356;-53
2022/12/14 10:10:25;;;;;;;27.45;15.82;;;-2.00;99.90;;;;;;7378319;19;20360;-48
2022/12/14 10:13:12;;;;;;;27.63;16.10;;;-1.90;99.90;;;;;;7377834;19;20018;-49
2022/12/14 10:15:49;;;;;;;27.02;15.00;;;-1.90;99.90;;;;;;7379839;19;20056;-51
2022/12/14 10:18:28;;;;;;;28.08;15.80;;;-1.70;99.90;;;;;;7379431;19;20025;-50
2022/12/14 10:21:03;;;;;;;23.70;15.63;;;-1.20;99.90;;;;;;7373175;19;20494;-47
2022/12/14 10:24:01;;;;;;;25.42;14.95;;;-0.50;99.90;;;;;;7371387;19;20046;-51
2022/12/14 10:26:39;;;;;;;22.40;14.82;;;0.00;99.90;;;;;;7376844;19;20336;-49
2022/12/14 10:29:24;;;;;;;25.50;14.50;;;0.10;99.90;;;;;;7371906;19;20030;-51
2022/12/14 10:32:20;;;;;;;25.13;15.32;;;0.10;99.90;;;;;;7384184;19;20029;-52
2022/12/14 10:34:47;;;;;;;25.27;14.98;;;0.20;99.90;;;;;;7382801;19;20062;-47
2022/12/14 10:37:28;;;;;;;24.15;14.00;;;0.10;99.90;;;;;;7381723;19;20087;-50
2022/12/14 10:40:03;;;;;;;23.23;15.25;;;0.00;99.90;;;;;;7383098;19;20482;-50
2022/12/14 10:42:44;;;;;;;24.92;15.05;;;0.30;99.90;;;;;;7383380;19;20390;-50
2022/12/14 10:45:21;;;;;;;;;;;0.20;99.90;;;;;;7382958;19;20031;-51
2022/12/14 10:47:59;;;;;;;23.45;14.75;;;0.20;99.90;;;;;;7381212;19;20537;-51
2022/12/14 10:50:50;;;;;;;23.83;14.80;;;0.40;99.90;;;;;;7380146;19;20029;-48
2022/12/14 10:53:21;;;;;;;23.38;14.23;;;0.60;99.90;;;;;;7384748;19;20040;-47
2022/12/14 10:55:52;;;;;;;23.00;14.98;;;0.80;99.90;;;;;;7380233;19;20018;-52
2022/12/14 10:58:18;;;;;;;24.75;15.85;;;0.80;99.90;;;;;;7378384;19;20014;-49
2022/12/14 11:00:53;;;;;;;23.02;14.40;;;1.20;99.90;;;;;;7376623;19;20027;-50
2022/12/14 11:03:27;;;;;;;22.75;14.80;;;1.90;99.90;;;;;;7377723;19;20026;-51
2022/12/14 11:06:06;;;;;;;24.45;15.00;;;1.90;99.90;;;;;;7374878;19;20074;-51
2022/12/14 11:08:38;;;;;;;21.63;14.88;;;1.80;99.90;;;;;;7380754;19;20588;-51
2022/12/14 11:11:12;;;;;;;22.48;15.50;;;1.80;99.90;;;;;;7379885;19;20078;-50
2022/12/14 11:13:39;;;;;;;27.05;15.32;;;1.60;99.90;;;;;;7380967;19;20018;-47
2022/12/14 11:16:33;;;;;;;21.98;14.80;;;1.60;99.90;;;;;;7381931;19;20066;-51
2022/12/14 11:19:01;;;;;;;22.35;15.50;;;1.40;99.90;;;;;;7382165;19;20486;-52
2022/12/14 11:21:33;;;;;;;21.38;14.05;;;1.30;99.90;;;;;;7382631;19;20015;-51
2022/12/14 11:24:00;;;;;;;23.45;14.35;;;1.20;99.90;;;;;;7380029;19;20035;-51
2022/12/14 11:26:32;;;;;;;22.02;14.55;;;1.10;99.90;;;;;;7375114;19;20018;-53
2022/12/14 11:29:01;;;;;;;23.52;14.43;;;0.90;99.90;;;;;;7375589;19;20018;-52
2022/12/14 11:31:43;;;;;;;21.27;14.32;;;0.60;99.90;;;;;;7384128;19;20023;-53
2022/12/14 11:34:19;;;;;;;;;;;0.40;99.90;;;;;;7384714;19;20027;-52
2022/12/14 11:36:47;;;;;;;19.95;13.68;;;0.40;99.90;;;;;;7376921;19;20319;-53
2022/12/14 11:39:14;;;;;;;21.58;14.70;;;0.30;99.90;;;;;;7376195;19;20358;-51
2022/12/14 11:41:46;;;;;;;22.27;13.65;;;0.10;99.90;;;;;;7369459;19;20015;-53
2022/12/14 11:44:41;;;;;;;20.13;12.67;;;-0.10;99.90;;;;;;7370466;19;20022;-53
2022/12/14 11:47:28;;;;;;;20.90;13.73;;;0.00;99.90;;;;;;7372364;19;20049;-53
2022/12/14 11:49:56;;;;;;;21.90;14.50;;;0.00;99.90;;;;;;7380304;19;20038;-53
2022/12/14 11:52:36;;;;;;;24.17;14.63;;;0.10;99.90;;;;;;7381692;19;20479;-53
2022/12/14 11:55:12;;;;;;;18.35;11.88;;;0.10;99.90;;;;;;7380974;19;20018;-51
2022/12/14 11:57:53;;;;;;;21.13;13.13;;;0.30;99.90;;;;;;7380896;19;20478;-52
2022/12/14 12:00:22;;;;;;;18.77;11.77;;;0.30;99.90;;;;;;7379979;19;20014;-51
2022/12/14 12:03:13;;;;;;;18.67;12.43;;;0.20;99.90;;;;;;7380897;19;20423;-48
2022/12/14 12:05:47;;;;;;;18.75;12.82;;;0.40;99.90;;;;;;7379188;19;20026;-52
2022/12/14 12:08:23;;;;;;;22.30;13.07;;;0.90;99.90;;;;;;7373340;19;20859;-51
2022/12/14 12:11:04;;;;;;;19.85;12.68;;;1.50;99.90;;;;;;7367181;19;20011;-49
2022/12/14 12:13:40;;;;;;;18.35;12.35;;;2.20;99.90;;;;;;7367867;19;20388;-50
2022/12/14 12:16:15;;;;;;;20.75;14.35;;;2.40;99.90;;;;;;7378002;19;20487;-52
2022/12/14 12:19:23;;;;;;;20.92;13.65;;;2.50;99.90;;;;;;7375051;19;20014;-51
2022/12/14 12:21:51;;;;;;;19.38;12.50;;;2.80;99.90;;;;;;7371931;19;20010;-51
2022/12/14 12:24:29;;;;;;;16.77;11.60;;;2.80;99.90;;;;;;7370743;19;20699;-51
2022/12/14 12:27:10;;;;;;;17.83;12.18;;;3.20;99.90;;;;;;7376020;19;20018;-52
2022/12/14 12:29:57;;;;;;;18.85;12.18;;;3.50;99.90;;;;;;7377849;19;20023;-51
2022/12/14 12:32:35;;;;;;;19.40;13.70;;;3.60;99.90;;;;;;7390051;19;20386;-52
2022/12/14 12:35:19;;;;;;;18.90;12.45;;;3.30;99.90;;;;;;7386326;19;20014;-51
2022/12/14 12:37:56;;;;;;;18.63;12.43;;;2.90;99.90;;;;;;7375487;19;20025;-49
2022/12/14 12:40:36;;;;;;;19.50;14.00;;;2.70;99.90;;;;;;7371675;19;20015;-49
2022/12/14 12:43:12;;;;;;;17.25;11.57;;;2.60;99.90;;;;;;7379501;19;20076;-50
2022/12/14 12:46:17;;;;;;;19.83;14.02;;;2.30;99.90;;;;;;7383849;19;20035;-48
2022/12/14 12:48:49;;;;;;;22.13;14.43;;;2.10;99.90;;;;;;7383159;19;20457;-50
2022/12/14 12:51:26;;;;;;;24.65;14.35;;;2.00;99.90;;;;;;7383883;19;20029;-50
2022/12/14 12:53:59;;;;;;;23.88;15.27;;;2.10;99.90;;;;;;7379105;19;20132;-52
2022/12/14 12:56:38;;;;;;;22.27;15.40;;;2.20;99.90;;;;;;7372737;19;20116;-51
2022/12/14 12:59:06;;;;;;;23.63;15.60;;;2.10;99.90;;;;;;7372411;19;20025;-51
2022/12/14 13:01:37;;;;;;;23.85;15.18;;;2.80;99.90;;;;;;7380374;19;20043;-47
2022/12/14 13:04:09;;;;;;;22.65;15.38;;;3.90;99.90;;;;;;7383116;19;20094;-48
2022/12/14 13:07:37;;;;;;;21.17;15.05;;;4.80;99.90;;;;;;7370569;19;20419;-48
2022/12/14 13:10:26;;;;;;;20.67;14.00;;;5.00;99.90;;;;;;7375607;19;20018;-48
2022/12/14 13:13:03;;;;;;;20.70;15.35;;;5.00;99.90;;;;;;7377010;19;20397;-50
2022/12/14 13:15:34;;;;;;;21.42;15.05;;;5.10;99.90;;;;;;7377410;19;20015;-50
2022/12/14 13:18:20;;;;;;;21.10;15.20;;;5.50;99.90;;;;;;7367179;19;20018;-49
2022/12/14 13:20:55;;;;;;;19.40;14.80;;;6.20;99.90;;;;;;7370947;19;20015;-51
2022/12/14 13:23:27;;;;;;;19.33;14.32;;;6.90;99.90;;;;;;7367429;19;20026;-50